Chocowinity, North Carolina
Current Conditions -  °F | °C
As of 3:55 PM on Tuesday 27 Jan 2015 (Local Time) from KOCW Reporting Station
Overcast Overcast  
Wind Chill: -2°   Ceiling: 2300
Heat Index:   Visibility: 10mi
Dew Point: -2°   Wind: 8mph
Humidity: 77%   Direction: 340°NNW
Pressure: 29.81"   Gusts: NA
Location:  35.51°N, 77.1°W
Report Text: KOCW 272055Z AUTO 34007KT 300V360 10SM BKN023 OVC050 02/M02 A2981 RMK AO2 T00201016
Loading
Personal Weather Stations






























Interactive Weather Map New forecast layout! Learn more

10-Day Weather Forecast

Advertisements
Track Severe Weather on mobile